Time;durP1;ratioP1;P1;durP2;ratioP2;P2;SDS_P1;SDS_P2;PMS_P1;PMS_P2;Temp;Humidity;BMP_temperature;BMP_pressure;BME280_temperature;BME280_humidity;BME280_pressure;Samples;Min_cycle;Max_cycle;Signal;HPM_P1;HPM_P2
2022/09/14 00:00:55;;;;;;;9.20;3.40;;;12.50;18.70;;;;;;5036057;28;20049;-27
2022/09/14 00:03:21;;;;;;;8.00;3.72;;;12.50;26.40;;;;;;5037023;28;20049;-27
2022/09/14 00:05:46;;;;;;;5.82;2.97;;;12.60;25.50;;;;;;5036904;28;20553;-27
2022/09/14 00:08:12;;;;;;;7.32;2.95;;;12.70;14.60;;;;;;5037156;28;20048;-27
2022/09/14 00:10:40;;;;;;;5.38;2.80;;;12.70;23.90;;;;;;5037035;28;20049;-27
2022/09/14 00:13:07;;;;;;;7.68;2.75;;;12.70;35.60;;;;;;5037322;28;20050;-27
2022/09/14 00:15:38;;;;;;;7.57;2.70;;;12.80;27.30;;;;;;5036754;28;20041;-27
2022/09/14 00:18:05;;;;;;;9.20;3.20;;;12.80;35.70;;;;;;5037862;28;20441;-27
2022/09/14 00:20:31;;;;;;;6.43;2.85;;;12.80;21.00;;;;;;5035532;28;20391;-28
2022/09/14 00:22:57;;;;;;;9.88;3.08;;;12.80;4.20;;;;;;5036480;28;20049;-27
2022/09/14 00:25:25;;;;;;;9.27;2.60;;;12.70;1.00;;;;;;5035948;28;20095;-27
2022/09/14 00:27:51;;;;;;;7.93;2.60;;;12.70;1.00;;;;;;5035409;28;20068;-27
2022/09/14 00:30:18;;;;;;;7.30;2.83;;;12.60;1.00;;;;;;5037215;28;20104;-27
2022/09/14 00:32:44;;;;;;;9.05;3.20;;;12.50;1.00;;;;;;5035248;28;20129;-27
2022/09/14 00:35:09;;;;;;;5.47;3.13;;;12.40;1.00;;;;;;5019251;28;20132;-26
2022/09/14 00:37:35;;;;;;;8.73;3.78;;;12.30;1.00;;;;;;5035337;28;20046;-27
2022/09/14 00:40:03;;;;;;;6.65;3.20;;;12.20;1.00;;;;;;5034545;28;20100;-27
2022/09/14 00:42:29;;;;;;;6.45;3.03;;;12.10;1.00;;;;;;5036262;28;20479;-27
2022/09/14 00:45:00;;;;;;;10.10;3.72;;;12.10;1.00;;;;;;5036723;28;20042;-27
2022/09/14 00:47:29;;;;;;;5.25;3.05;;;12.00;1.00;;;;;;5036631;28;20480;-27
2022/09/14 00:49:56;;;;;;;7.18;4.15;;;12.00;1.00;;;;;;5035054;28;20106;-26
2022/09/14 00:52:28;;;;;;;5.30;3.67;;;11.90;1.00;;;;;;5034777;28;20063;-26
2022/09/14 00:55:01;;;;;;;9.50;3.85;;;11.90;1.00;;;;;;5035976;28;20041;-28
2022/09/14 00:57:30;;;;;;;13.13;4.90;;;11.90;1.00;;;;;;5036009;28;20041;-28
2022/09/14 00:59:56;;;;;;;11.77;4.60;;;11.80;1.00;;;;;;5018284;28;20085;-27
2022/09/14 01:02:24;;;;;;;12.60;4.80;;;11.80;1.00;;;;;;5034865;28;20048;-26
2022/09/14 01:04:50;;;;;;;9.60;5.50;;;11.80;2.90;;;;;;5034881;28;20052;-28
2022/09/14 01:07:28;;;;;;;9.05;5.25;;;11.80;28.40;;;;;;5035861;28;20099;-27
2022/09/14 01:10:03;;;;;;;10.32;5.32;;;11.80;99.90;;;;;;5034422;28;20046;-27
2022/09/14 01:12:47;;;;;;;6.65;4.65;;;11.90;99.90;;;;;;5035767;28;20052;-27
2022/09/14 01:15:24;;;;;;;11.27;5.38;;;12.00;99.90;;;;;;5034443;28;20057;-26
2022/09/14 01:18:08;;;;;;;13.48;4.97;;;12.00;99.90;;;;;;5035008;28;20467;-27
2022/09/14 01:20:44;;;;;;;10.32;5.88;;;12.10;99.90;;;;;;5036439;28;20120;-27
2022/09/14 01:23:32;;;;;;;10.68;5.88;;;12.10;99.90;;;;;;5035579;28;20056;-27
2022/09/14 01:26:13;;;;;;;9.70;5.18;;;12.20;99.90;;;;;;5035536;28;20184;-27
2022/09/14 01:28:52;;;;;;;11.07;5.40;;;12.30;99.90;;;;;;5035471;28;20049;-27
2022/09/14 01:31:25;;;;;;;14.18;6.03;;;12.40;99.90;;;;;;5035396;28;20085;-27
2022/09/14 01:34:13;;;;;;;9.43;5.47;;;12.40;99.90;;;;;;5035885;28;20491;-27
2022/09/14 01:36:43;;;;;;;10.55;5.43;;;12.60;99.90;;;;;;5034214;28;20052;-27
2022/09/14 01:39:10;;;;;;;12.93;5.57;;;12.50;1.00;;;;;;5035238;28;20045;-27
2022/09/14 01:41:38;;;;;;;10.35;5.00;;;12.60;1.00;;;;;;5034062;28;20053;-27
2022/09/14 01:44:19;;;;;;;11.52;5.00;;;12.60;1.00;;;;;;5035612;28;20056;-28
2022/09/14 01:46:52;;;;;;;9.55;5.15;;;12.60;1.00;;;;;;5034997;28;20092;-27
2022/09/14 01:49:31;;;;;;;6.80;3.67;;;12.60;1.00;;;;;;5035897;28;20388;-27
2022/09/14 01:52:09;;;;;;;6.47;3.80;;;12.60;1.00;;;;;;5035026;28;20476;-27
2022/09/14 01:54:54;;;;;;;11.95;4.00;;;12.70;1.00;;;;;;5034949;28;20049;-27
2022/09/14 01:57:41;;;;;;;11.32;4.50;;;12.80;1.00;;;;;;5034620;28;20502;-27
2022/09/14 02:00:11;;;;;;;12.35;4.70;;;12.80;1.00;;;;;;5017764;28;20443;-28
2022/09/14 02:02:40;;;;;;;10.20;4.22;;;12.80;1.00;;;;;;5034409;28;20439;-27
2022/09/14 02:05:18;;;;;;;10.82;4.13;;;12.90;1.00;;;;;;5035243;28;20053;-28
2022/09/14 02:07:44;;;;;;;8.73;4.10;;;12.90;1.00;;;;;;5033673;28;20049;-27
2022/09/14 02:10:12;;;;;;;9.90;4.45;;;12.90;1.00;;;;;;5034197;28;20041;-27
2022/09/14 02:12:38;;;;;;;11.15;4.97;;;12.90;99.90;;;;;;5034696;28;20045;-27
2022/09/14 02:15:06;;;;;;;8.48;4.18;;;12.90;99.90;;;;;;5034799;28;20045;-27
2022/09/14 02:17:32;;;;;;;10.20;4.00;;;13.00;99.90;;;;;;5050069;28;20506;-27
2022/09/14 02:20:03;;;;;;;10.52;3.95;;;13.00;99.90;;;;;;5033439;28;20050;-27
2022/09/14 02:22:30;;;;;;;8.93;4.32;;;13.00;99.90;;;;;;5033415;28;20188;-28
2022/09/14 02:24:56;;;;;;;8.82;4.15;;;13.10;99.90;;;;;;5034333;28;20111;-27
2022/09/14 02:27:22;;;;;;;10.27;4.35;;;13.10;99.90;;;;;;5033634;28;20392;-27
2022/09/14 02:29:49;;;;;;;9.13;3.67;;;13.10;99.90;;;;;;5034440;28;20063;-27
2022/09/14 02:32:40;;;;;;;12.20;4.18;;;13.10;99.90;;;;;;5033518;28;20045;-27
2022/09/14 02:35:18;;;;;;;9.88;3.88;;;13.10;99.90;;;;;;5034193;28;20057;-28
2022/09/14 02:38:11;;;;;;;9.25;3.70;;;13.20;99.90;;;;;;5034999;28;20049;-27
2022/09/14 02:40:45;;;;;;;11.63;3.92;;;13.20;99.90;;;;;;5034833;28;20054;-27
2022/09/14 02:43:36;;;;;;;9.63;3.63;;;13.20;99.90;;;;;;5034107;28;20123;-27
2022/09/14 02:46:23;;;;;;;8.48;4.22;;;13.30;99.90;;;;;;5034349;28;20053;-27
2022/09/14 02:48:55;;;;;;;8.10;3.90;;;13.20;99.90;;;;;;5033986;28;20053;-27
2022/09/14 02:51:34;;;;;;;9.07;3.67;;;13.30;99.90;;;;;;5032694;28;20049;-27
2022/09/14 02:54:42;;;;;;;10.38;3.60;;;13.30;99.90;;;;;;5034426;28;20106;-27
2022/09/14 02:57:08;;;;;;;7.45;3.63;;;13.40;99.90;;;;;;5025377;28;20104;-27
2022/09/14 02:59:34;;;;;;;8.20;3.60;;;13.40;99.90;;;;;;5033504;28;20081;-27
2022/09/14 03:02:00;;;;;;;8.35;4.20;;;13.40;99.90;;;;;;5033851;28;20045;-27
2022/09/14 03:04:26;;;;;;;12.13;4.20;;;13.40;99.90;;;;;;5032823;28;20551;-27
2022/09/14 03:06:52;;;;;;;8.45;4.28;;;13.40;99.90;;;;;;5033325;28;20055;-27
2022/09/14 03:09:18;;;;;;;8.43;4.20;;;13.30;99.90;;;;;;5034545;28;20049;-27
2022/09/14 03:11:43;;;;;;;10.57;4.78;;;13.30;99.90;;;;;;5033962;28;20402;-28
2022/09/14 03:14:10;;;;;;;9.23;4.22;;;13.30;99.90;;;;;;5033045;28;20053;-27
2022/09/14 03:16:37;;;;;;;8.32;4.03;;;13.30;99.90;;;;;;5034174;28;20136;-27
2022/09/14 03:19:04;;;;;;;10.05;4.40;;;13.30;99.90;;;;;;5033605;28;20438;-27
2022/09/14 03:21:30;;;;;;;8.52;4.63;;;13.30;99.90;;;;;;5032622;28;20080;-27
2022/09/14 03:23:56;;;;;;;11.35;5.60;;;13.20;99.90;;;;;;5034728;28;20095;-27
2022/09/14 03:26:24;;;;;;;9.57;4.30;;;13.30;99.90;;;;;;5036509;28;20049;-27
2022/09/14 03:28:56;;;;;;;8.70;4.88;;;13.30;99.90;;;;;;5020193;28;20053;-27
2022/09/14 03:31:23;;;;;;;8.07;4.47;;;13.30;99.90;;;;;;5037514;28;20049;-27
2022/09/14 03:33:54;;;;;;;10.88;4.50;;;13.30;99.90;;;;;;5037546;28;20057;-28
2022/09/14 03:36:20;;;;;;;8.55;5.00;;;13.30;99.90;;;;;;5036530;28;20045;-27
2022/09/14 03:38:51;;;;;;;8.25;4.28;;;13.20;99.90;;;;;;5038265;28;20041;-27
2022/09/14 03:41:18;;;;;;;12.20;5.78;;;13.30;99.90;;;;;;5035877;28;20504;-27
2022/09/14 03:43:45;;;;;;;11.88;5.03;;;13.30;99.90;;;;;;5037390;28;20057;-27
2022/09/14 03:46:22;;;;;;;10.43;4.97;;;13.30;99.90;;;;;;5036290;28;20049;-27
2022/09/14 03:48:48;;;;;;;10.45;5.30;;;13.30;99.90;;;;;;5037585;28;20048;-27
2022/09/14 03:51:14;;;;;;;10.40;4.95;;;13.30;99.90;;;;;;5037203;28;20501;-27
2022/09/14 03:53:41;;;;;;;8.45;4.75;;;13.30;99.90;;;;;;5037256;28;20052;-27
2022/09/14 03:56:13;;;;;;;7.20;4.32;;;13.40;99.90;;;;;;5037978;28;20049;-27
2022/09/14 03:58:40;;;;;;;8.93;4.68;;;13.40;99.90;;;;;;5036942;28;20495;-27
2022/09/14 04:01:08;;;;;;;7.82;4.30;;;13.40;99.90;;;;;;5035837;28;20499;-27
2022/09/14 04:03:35;;;;;;;7.30;4.28;;;13.40;1.00;;;;;;5036715;28;20565;-27
2022/09/14 04:06:04;;;;;;;8.98;5.00;;;13.30;1.00;;;;;;5036006;28;20046;-27
2022/09/14 04:08:31;;;;;;;8.00;5.28;;;13.40;1.00;;;;;;5036218;28;20053;-27
2022/09/14 04:10:57;;;;;;;8.00;4.70;;;13.40;1.00;;;;;;5036790;28;20078;-27
2022/09/14 04:13:22;;;;;;;11.30;5.40;;;13.40;1.00;;;;;;5036879;28;20049;-27
2022/09/14 04:16:00;;;;;;;7.88;4.22;;;13.30;1.00;;;;;;5035872;28;20042;-27
2022/09/14 04:18:26;;;;;;;11.00;4.43;;;13.40;1.00;;;;;;5036693;28;20503;-27
2022/09/14 04:20:57;;;;;;;13.10;4.90;;;13.40;1.00;;;;;;5019290;28;20049;-27
2022/09/14 04:23:24;;;;;;;7.70;5.43;;;13.30;1.00;;;;;;5036495;28;20092;-27
2022/09/14 04:25:50;;;;;;;8.15;4.53;;;13.30;1.00;;;;;;5035611;28;20586;-27
2022/09/14 04:28:16;;;;;;;8.88;4.57;;;13.30;1.00;;;;;;5036525;28;20099;-27
2022/09/14 04:30:42;;;;;;;9.40;5.20;;;13.40;1.00;;;;;;5036991;28;20084;-27
2022/09/14 04:33:07;;;;;;;11.25;4.63;;;13.40;1.00;;;;;;5036329;28;20363;-27
2022/09/14 04:35:33;;;;;;;11.88;5.18;;;13.40;1.00;;;;;;5036106;28;20045;-28
2022/09/14 04:37:59;;;;;;;10.63;5.20;;;13.30;1.00;;;;;;5036243;28;20088;-27
2022/09/14 04:40:27;;;;;;;15.10;5.10;;;13.40;1.00;;;;;;5035974;28;20053;-28
2022/09/14 04:42:53;;;;;;;8.30;4.85;;;13.30;1.00;;;;;;5035019;28;20129;-28
2022/09/14 04:45:20;;;;;;;10.88;5.35;;;13.40;1.00;;;;;;5036254;28;20132;-28
2022/09/14 04:47:45;;;;;;;11.52;5.32;;;13.30;1.00;;;;;;5036101;28;20407;-27
2022/09/14 04:50:11;;;;;;;9.65;4.93;;;13.30;1.00;;;;;;5036153;28;20136;-28
2022/09/14 04:52:37;;;;;;;9.77;6.15;;;13.30;1.00;;;;;;5035837;28;20045;-27
2022/09/14 04:55:02;;;;;;;6.40;4.70;;;13.30;1.00;;;;;;5035716;28;20052;-28
2022/09/14 04:57:28;;;;;;;8.80;5.65;;;13.30;1.00;;;;;;5034783;28;20488;-27
2022/09/14 04:59:54;;;;;;;9.10;5.50;;;13.30;1.00;;;;;;5018310;28;20049;-27
2022/09/14 05:02:19;;;;;;;8.02;4.97;;;13.30;1.00;;;;;;5034930;28;20054;-27
2022/09/14 05:04:45;;;;;;;9.05;4.93;;;13.30;1.00;;;;;;5036720;28;20084;-27
2022/09/14 05:07:11;;;;;;;9.45;4.95;;;13.30;1.00;;;;;;5034801;28;20107;-27
2022/09/14 05:09:36;;;;;;;9.57;5.32;;;13.30;1.00;;;;;;5036272;28;20050;-27
2022/09/14 05:12:02;;;;;;;8.30;4.63;;;13.30;1.00;;;;;;5035967;28;20052;-27
2022/09/14 05:14:28;;;;;;;8.32;5.82;;;13.40;1.00;;;;;;5034484;28;20049;-27
2022/09/14 05:16:55;;;;;;;11.48;5.80;;;13.30;1.00;;;;;;5034708;28;20136;-27
2022/09/14 05:19:20;;;;;;;10.73;5.25;;;13.30;1.00;;;;;;5034441;28;20045;-27
2022/09/14 05:21:46;;;;;;;12.90;5.20;;;13.30;1.00;;;;;;5035895;28;20037;-27
2022/09/14 05:24:17;;;;;;;9.20;5.15;;;13.30;1.00;;;;;;5035527;28;20045;-28
2022/09/14 05:26:44;;;;;;;7.90;4.70;;;13.30;1.00;;;;;;5035429;28;20136;-27
2022/09/14 05:29:12;;;;;;;10.55;4.45;;;13.30;1.00;;;;;;5034534;28;20049;-27
2022/09/14 05:31:38;;;;;;;7.97;4.15;;;13.30;1.00;;;;;;5035339;28;20045;-27
2022/09/14 05:34:04;;;;;;;14.18;4.72;;;13.40;1.00;;;;;;5035310;28;20045;-27
2022/09/14 05:36:29;;;;;;;7.50;3.90;;;13.40;1.00;;;;;;5035280;28;20128;-28
2022/09/14 05:38:56;;;;;;;10.48;4.65;;;13.40;1.00;;;;;;5035762;28;20038;-27
2022/09/14 05:41:22;;;;;;;6.53;4.55;;;13.40;1.00;;;;;;5034518;28;20059;-28
2022/09/14 05:43:48;;;;;;;11.73;5.00;;;13.30;1.00;;;;;;5035139;28;20061;-28
2022/09/14 05:46:16;;;;;;;8.88;4.90;;;13.30;1.00;;;;;;5034885;28;20376;-27
2022/09/14 05:48:42;;;;;;;10.77;4.15;;;13.30;1.00;;;;;;5034475;28;20510;-27
2022/09/14 05:51:17;;;;;;;13.77;4.70;;;13.40;1.00;;;;;;5017321;28;20045;-28
2022/09/14 05:53:52;;;;;;;5.78;3.47;;;13.40;1.00;;;;;;5033802;28;20139;-27
2022/09/14 05:56:19;;;;;;;7.53;4.00;;;13.40;1.00;;;;;;5034888;28;20045;-27
2022/09/14 05:58:45;;;;;;;8.25;4.28;;;13.50;1.00;;;;;;5033706;28;20399;-28
2022/09/14 06:01:23;;;;;;;9.82;4.28;;;13.60;1.00;;;;;;5033678;28;20572;-27
2022/09/14 06:03:49;;;;;;;13.32;4.53;;;13.60;1.00;;;;;;5034145;28;20099;-28
2022/09/14 06:06:18;;;;;;;8.55;4.07;;;13.70;1.00;;;;;;5034019;28;20041;-27
2022/09/14 06:08:44;;;;;;;13.05;4.30;;;13.70;1.00;;;;;;5033934;28;20060;-28
2022/09/14 06:11:13;;;;;;;12.77;3.90;;;13.80;1.00;;;;;;5034588;28;20388;-28
2022/09/14 06:13:40;;;;;;;11.55;3.90;;;13.80;1.00;;;;;;5033890;28;20060;-28
2022/09/14 06:16:09;;;;;;;5.38;3.20;;;13.90;1.00;;;;;;5034508;28;20038;-28
2022/09/14 06:18:36;;;;;;;7.47;3.30;;;14.00;1.00;;;;;;5035305;28;20041;-28
2022/09/14 06:21:03;;;;;;;7.07;3.33;;;14.10;1.00;;;;;;5033168;28;20088;-27
2022/09/14 06:23:29;;;;;;;8.73;4.00;;;14.20;1.00;;;;;;5034378;28;20396;-27
2022/09/14 06:25:56;;;;;;;12.07;3.90;;;14.30;1.00;;;;;;5034342;28;20041;-28
2022/09/14 06:28:23;;;;;;;12.73;4.32;;;14.20;1.00;;;;;;5034310;28;20045;-28
2022/09/14 06:30:49;;;;;;;5.20;3.47;;;14.30;1.00;;;;;;5034983;28;20045;-28
2022/09/14 06:33:16;;;;;;;10.15;3.72;;;14.30;99.90;;;;;;5035049;28;20043;-28
2022/09/14 06:35:45;;;;;;;8.23;4.00;;;14.40;99.90;;;;;;5033238;28;20042;-28
2022/09/14 06:38:11;;;;;;;6.68;3.63;;;14.40;99.90;;;;;;5034151;28;20075;-28
2022/09/14 06:40:37;;;;;;;11.50;3.60;;;14.50;99.90;;;;;;5016430;28;20550;-27
2022/09/14 06:43:02;;;;;;;8.80;3.17;;;14.60;99.90;;;;;;5034656;28;20133;-28
2022/09/14 06:45:29;;;;;;;9.50;3.50;;;14.70;99.90;;;;;;5034773;28;20049;-28
2022/09/14 06:47:56;;;;;;;6.53;3.22;;;14.70;99.90;;;;;;5033045;28;20053;-28
2022/09/14 06:50:22;;;;;;;5.72;3.35;;;14.80;99.90;;;;;;5033915;28;20128;-28
2022/09/14 06:52:48;;;;;;;5.78;2.80;;;14.80;99.90;;;;;;5016583;28;20089;-28
2022/09/14 06:55:14;;;;;;;11.63;2.60;;;15.00;99.90;;;;;;5033892;28;20082;-28
2022/09/14 06:57:39;;;;;;;8.70;3.17;;;15.00;76.90;;;;;;5032606;28;20049;-28
2022/09/14 07:00:05;;;;;;;10.57;3.78;;;15.10;50.00;;;;;;5034878;28;20041;-28
2022/09/14 07:02:31;;;;;;;8.32;3.15;;;15.20;84.40;;;;;;5033778;28;20060;-28
2022/09/14 07:04:57;;;;;;;7.72;3.00;;;15.30;61.20;;;;;;5032562;28;20045;-28
2022/09/14 07:07:22;;;;;;;7.78;2.00;;;15.40;1.00;;;;;;5033775;28;20042;-27
2022/09/14 07:09:48;;;;;;;7.85;2.60;;;15.40;1.00;;;;;;5034215;28;20526;-28
2022/09/14 07:12:14;;;;;;;8.52;2.35;;;15.50;1.00;;;;;;5033735;28;20056;-27
2022/09/14 07:14:40;;;;;;;7.68;2.42;;;15.50;1.00;;;;;;5033658;28;20508;-27
2022/09/14 07:17:05;;;;;;;10.70;2.25;;;15.60;1.00;;;;;;5033296;28;20491;-28
2022/09/14 07:19:31;;;;;;;5.97;1.73;;;15.60;1.00;;;;;;5033627;28;20057;-28
2022/09/14 07:21:57;;;;;;;6.78;2.00;;;15.70;99.90;;;;;;5033606;28;20041;-28
2022/09/14 07:24:23;;;;;;;6.90;2.05;;;15.70;99.90;;;;;;5033574;28;20045;-28
2022/09/14 07:26:48;;;;;;;9.38;2.25;;;15.70;99.90;;;;;;5032431;28;20052;-29
2022/09/14 07:29:17;;;;;;;6.57;3.17;;;15.80;99.90;;;;;;5034370;28;20049;-28
2022/09/14 07:31:51;;;;;;;5.78;1.63;;;15.80;99.90;;;;;;5033784;28;20375;-28
2022/09/14 07:34:17;;;;;;;7.75;2.45;;;15.90;99.90;;;;;;5033499;28;20064;-28
2022/09/14 07:36:43;;;;;;;7.13;2.55;;;15.90;99.90;;;;;;5032344;28;20041;-28
2022/09/14 07:39:12;;;;;;;10.05;2.15;;;16.00;99.90;;;;;;5033452;28;20038;-28
2022/09/14 07:41:38;;;;;;;4.07;2.05;;;16.00;99.90;;;;;;5032971;28;20057;-28
2022/09/14 07:44:06;;;;;;;8.57;3.20;;;16.00;99.90;;;;;;5032247;28;20052;-27
2022/09/14 07:46:37;;;;;;;8.50;2.20;;;16.10;99.90;;;;;;5016179;28;20061;-28
2022/09/14 07:49:04;;;;;;;6.78;1.88;;;16.10;99.90;;;;;;5033401;28;20125;-28
2022/09/14 07:51:31;;;;;;;10.73;1.83;;;16.20;99.90;;;;;;5032390;28;20103;-28
2022/09/14 07:54:00;;;;;;;4.40;1.80;;;16.30;98.30;;;;;;5033308;28;20085;-28
2022/09/14 07:56:26;;;;;;;9.32;1.85;;;16.30;50.10;;;;;;5032585;28;20122;-28
2022/09/14 07:58:54;;;;;;;9.73;1.77;;;16.30;1.00;;;;;;5033245;28;20051;-27
2022/09/14 08:01:21;;;;;;;8.95;2.20;;;16.40;99.90;;;;;;5033307;28;20080;-27
2022/09/14 08:03:47;;;;;;;6.93;1.73;;;16.50;1.00;;;;;;5033282;28;20053;-28
2022/09/14 08:06:19;;;;;;;10.45;2.08;;;16.60;1.00;;;;;;5033060;28;20096;-27
2022/09/14 08:08:46;;;;;;;6.85;2.20;;;16.70;1.00;;;;;;5032742;28;20053;-27
2022/09/14 08:11:24;;;;;;;5.30;1.63;;;16.90;1.00;;;;;;5035361;28;20403;-28
2022/09/14 08:13:53;;;;;;;9.60;1.50;;;17.10;99.90;;;;;;5036874;28;20180;-28
2022/09/14 08:16:19;;;;;;;7.63;1.17;;;17.20;99.90;;;;;;5036729;28;20103;-28
2022/09/14 08:18:46;;;;;;;4.88;0.90;;;17.30;99.90;;;;;;5036763;28;20132;-29
2022/09/14 08:21:14;;;;;;;7.15;1.10;;;17.40;1.00;;;;;;5037529;28;20049;-28
2022/09/14 08:23:41;;;;;;;7.93;1.00;;;17.40;99.90;;;;;;5035717;28;20056;-28
2022/09/14 08:26:16;;;;;;;11.50;2.13;;;17.40;4.50;;;;;;5037431;28;20068;-28
2022/09/14 08:28:42;;;;;;;5.75;1.23;;;17.50;38.10;;;;;;5036555;28;20049;-28
2022/09/14 08:31:12;;;;;;;15.07;2.67;;;17.70;99.90;;;;;;5036482;28;20079;-28
2022/09/14 08:33:40;;;;;;;6.25;1.23;;;17.90;1.00;;;;;;5036552;28;20045;-28
2022/09/14 08:36:07;;;;;;;9.73;2.00;;;;;;;;;;5036429;28;20048;-28
2022/09/14 08:38:33;;;;;;;6.78;0.80;;;18.50;99.90;;;;;;5036977;28;20387;-27
2022/09/14 08:41:07;;;;;;;4.50;0.80;;;18.70;99.90;;;;;;5034855;28;20064;-28
2022/09/14 08:43:33;;;;;;;5.78;0.85;;;18.90;1.00;;;;;;5035638;28;20057;-28
2022/09/14 08:46:04;;;;;;;6.13;0.75;;;19.10;1.00;;;;;;5036249;28;20053;-28
2022/09/14 08:48:34;;;;;;;11.02;1.33;;;19.40;1.00;;;;;;5035589;28;20128;-28
2022/09/14 08:51:02;;;;;;;5.63;0.82;;;19.80;99.90;;;;;;5036423;28;20084;-27
2022/09/14 08:53:28;;;;;;;5.60;0.80;;;20.10;99.90;;;;;;5036156;28;20080;-28
2022/09/14 08:56:02;;;;;;;6.53;0.77;;;20.20;1.00;;;;;;5035370;28;20089;-27
2022/09/14 08:59:19;;;;;;;6.88;0.98;;;20.10;99.90;;;;;;5018939;28;20081;-27
2022/09/14 09:02:25;;;;;;;8.90;1.13;;;20.10;99.90;;;;;;5013886;28;20112;-28
2022/09/14 09:05:35;;;;;;;6.93;1.23;;;19.80;1.00;;;;;;5036500;28;20049;-27
2022/09/14 09:08:06;;;;;;;4.53;0.80;;;19.70;99.90;;;;;;5029996;28;20136;-27
2022/09/14 09:10:34;;;;;;;6.35;1.00;;;19.70;99.90;;;;;;5036411;28;20088;-27
2022/09/14 09:13:03;;;;;;;6.55;0.85;;;19.60;1.00;;;;;;5035731;28;20041;-27
2022/09/14 09:15:39;;;;;;;5.07;1.45;;;19.60;1.00;;;;;;5034583;28;20136;-27
2022/09/14 09:18:13;;;;;;;7.93;0.93;;;19.70;99.90;;;;;;5036343;28;20084;-27
2022/09/14 09:20:45;;;;;;;8.20;0.70;;;19.70;99.90;;;;;;5034594;28;20049;-27
2022/09/14 09:23:17;;;;;;;6.27;1.70;;;19.70;99.90;;;;;;5034810;28;20042;-27
2022/09/14 09:26:16;;;;;;;6.30;0.85;;;19.80;99.90;;;;;;5035734;28;20284;-27
2022/09/14 09:28:48;;;;;;;8.60;0.85;;;19.80;99.90;;;;;;5035184;28;20384;-27
2022/09/14 09:31:16;;;;;;;4.20;0.80;;;19.90;99.90;;;;;;5035345;28;20046;-27
2022/09/14 09:33:49;;;;;;;4.53;1.58;;;19.80;99.90;;;;;;5035379;28;20131;-27
2022/09/14 09:36:16;;;;;;;4.57;0.68;;;19.50;99.90;;;;;;5034382;28;20511;-27
2022/09/14 09:38:41;;;;;;;6.85;0.90;;;19.30;99.90;;;;;;5035271;28;20053;-27
2022/09/14 09:41:47;;;;;;;3.97;1.00;;;19.20;99.90;;;;;;5034872;28;20054;-26
2022/09/14 09:44:13;;;;;;;9.35;1.45;;;19.00;99.90;;;;;;5028787;28;20053;-27
2022/09/14 09:46:50;;;;;;;4.85;0.60;;;18.90;1.00;;;;;;5034735;28;20396;-27
2022/09/14 09:49:25;;;;;;;8.57;0.93;;;18.80;1.00;;;;;;5035648;28;20128;-27
2022/09/14 09:51:52;;;;;;;11.88;1.48;;;18.70;99.90;;;;;;5035840;28;20033;-26
2022/09/14 09:54:31;;;;;;;6.20;1.30;;;18.60;1.00;;;;;;5034273;28;20128;-27
2022/09/14 09:57:02;;;;;;;7.63;1.08;;;18.80;1.00;;;;;;5035533;28;20084;-28
2022/09/14 09:59:30;;;;;;;6.85;0.80;;;19.00;1.00;;;;;;5034947;28;20048;-27
2022/09/14 10:02:25;;;;;;;6.57;0.82;;;19.10;1.00;;;;;;5035087;28;20041;-27
2022/09/14 10:05:09;;;;;;;7.40;0.88;;;19.30;1.00;;;;;;5035084;28;20484;-27
2022/09/14 10:07:59;;;;;;;8.02;1.40;;;19.50;1.00;;;;;;5033786;28;20050;-27
2022/09/14 10:10:34;;;;;;;9.60;1.02;;;19.80;1.00;;;;;;5033924;28;20042;-27
2022/09/14 10:13:03;;;;;;;7.80;1.20;;;19.90;99.90;;;;;;5035157;28;20059;-26
2022/09/14 10:15:31;;;;;;;6.63;1.30;;;19.90;99.90;;;;;;5034595;28;20049;-27
2022/09/14 10:18:02;;;;;;;7.07;1.15;;;19.80;99.90;;;;;;5033357;28;20049;-27
2022/09/14 10:20:28;;;;;;;4.88;0.70;;;19.80;99.90;;;;;;5034509;28;20046;-27
2022/09/14 10:22:54;;;;;;;7.10;1.00;;;19.80;99.90;;;;;;5034439;28;20122;-27
2022/09/14 10:25:24;;;;;;;3.50;0.60;;;19.80;99.90;;;;;;5034468;28;20041;-27
2022/09/14 10:27:55;;;;;;;7.30;1.30;;;19.80;99.90;;;;;;5034425;28;20052;-27
2022/09/14 10:30:26;;;;;;;4.28;0.88;;;19.90;99.90;;;;;;5034228;28;20051;-27
2022/09/14 10:33:02;;;;;;;5.28;0.90;;;19.90;99.90;;;;;;5033938;28;20049;-27
2022/09/14 10:35:34;;;;;;;6.43;1.15;;;20.00;99.90;;;;;;5034270;28;20045;-27
2022/09/14 10:38:28;;;;;;;9.35;1.30;;;19.90;1.00;;;;;;5033578;28;20060;-26
2022/09/14 10:41:21;;;;;;;7.82;0.93;;;20.00;99.90;;;;;;5033738;28;20523;-27
2022/09/14 10:44:06;;;;;;;;;;;20.20;1.00;;;;;;5034828;28;20399;-27
2022/09/14 10:46:58;;;;;;;8.48;1.33;;;20.20;1.00;;;;;;5033940;28;19924;-27
2022/09/14 10:49:59;;;;;;;11.68;0.95;;;20.40;99.90;;;;;;5034035;28;20042;-28
2022/09/14 10:52:55;;;;;;;4.60;0.75;;;20.50;1.00;;;;;;5029900;28;20080;-27
2022/09/14 10:55:47;;;;;;;3.05;0.93;;;20.50;1.00;;;;;;5032987;28;20057;-27
2022/09/14 10:58:26;;;;;;;7.15;0.88;;;20.60;1.00;;;;;;5033986;28;20056;-26
2022/09/14 11:01:10;;;;;;;6.55;0.75;;;20.80;1.00;;;;;;5034498;28;20052;-27
2022/09/14 11:04:01;;;;;;;5.28;1.02;;;21.20;1.00;;;;;;5034643;28;20049;-27
2022/09/14 11:06:52;;;;;;;4.30;0.75;;;22.00;1.00;;;;;;5032871;28;20046;-28
2022/09/14 11:09:25;;;;;;;3.50;0.93;;;22.80;99.90;;;;;;5034098;28;20132;-27
2022/09/14 11:12:06;;;;;;;5.20;1.17;;;23.40;99.90;;;;;;5033711;28;20080;-28
2022/09/14 11:14:50;;;;;;;6.93;1.45;;;23.60;99.90;;;;;;5033048;28;20057;-27
2022/09/14 11:17:30;;;;;;;5.40;0.55;;;23.30;99.90;;;;;;5033693;28;20041;-28
2022/09/14 11:20:14;;;;;;;5.10;0.80;;;22.40;99.90;;;;;;5033661;28;20046;-27
2022/09/14 11:23:06;;;;;;;6.15;0.70;;;21.80;99.90;;;;;;5033621;28;20045;-27
2022/09/14 11:25:43;;;;;;;9.00;0.80;;;21.50;99.90;;;;;;5033649;28;20089;-27
2022/09/14 11:28:15;;;;;;;2.75;0.88;;;21.40;99.90;;;;;;5033850;28;20468;-27
2022/09/14 11:30:47;;;;;;;5.63;0.60;;;21.40;99.90;;;;;;5034120;28;20052;-27
2022/09/14 11:33:36;;;;;;;3.92;0.70;;;21.10;99.90;;;;;;5033800;28;20483;-27
2022/09/14 11:36:40;;;;;;;4.60;0.68;;;21.10;99.90;;;;;;5034145;28;20057;-27
2022/09/14 11:39:21;;;;;;;6.97;0.98;;;21.00;99.90;;;;;;5034098;28;20128;-27
2022/09/14 11:42:01;;;;;;;7.93;1.13;;;21.60;99.90;;;;;;5032535;28;20058;-27
2022/09/14 11:44:37;;;;;;;6.70;0.77;;;21.70;99.90;;;;;;5032616;28;20495;-27
2022/09/14 11:47:14;;;;;;;11.82;0.98;;;22.10;99.90;;;;;;5035250;28;20052;-27
2022/09/14 11:49:51;;;;;;;6.25;0.90;;;22.60;99.90;;;;;;5036251;28;20476;-27
2022/09/14 11:52:22;;;;;;;5.60;0.80;;;23.00;99.90;;;;;;5035394;28;20049;-27
2022/09/14 11:54:49;;;;;;;6.00;1.10;;;22.80;99.90;;;;;;5036565;28;20534;-27
2022/09/14 11:57:24;;;;;;;4.70;0.77;;;22.40;99.90;;;;;;5035862;28;20057;-28
2022/09/14 11:59:52;;;;;;;5.50;1.02;;;21.90;99.90;;;;;;5035843;28;20454;-27
2022/09/14 12:02:21;;;;;;;5.55;0.90;;;21.70;99.90;;;;;;5035794;28;20056;-27
2022/09/14 12:05:05;;;;;;;5.55;1.23;;;21.70;99.90;;;;;;5034827;28;20495;-27
2022/09/14 12:07:46;;;;;;;6.72;1.20;;;22.10;99.90;;;;;;5035062;28;20091;-27
2022/09/14 12:10:16;;;;;;;10.27;0.95;;;22.50;99.90;;;;;;5034973;28;20056;-28
2022/09/14 12:12:45;;;;;;;4.60;0.80;;;;;;;;;;5035680;28;20132;-27
2022/09/14 12:15:26;;;;;;;8.85;1.15;;;24.10;1.00;;;;;;5035646;28;20054;-27
2022/09/14 12:18:13;;;;;;;6.68;1.02;;;24.40;99.90;;;;;;5035647;28;20104;-26
2022/09/14 12:21:00;;;;;;;7.50;0.80;;;24.40;99.90;;;;;;5034928;28;20095;-27
2022/09/14 12:23:38;;;;;;;5.60;0.77;;;24.20;99.90;;;;;;5035556;28;20056;-27
2022/09/14 12:26:09;;;;;;;2.67;0.52;;;24.10;99.90;;;;;;5034786;28;20055;-26
2022/09/14 12:28:38;;;;;;;4.82;0.75;;;23.30;99.90;;;;;;5035455;28;20055;-27
2022/09/14 12:31:04;;;;;;;10.82;0.93;;;22.50;99.90;;;;;;5034992;28;20487;-27
2022/09/14 12:33:32;;;;;;;3.58;0.73;;;22.30;99.90;;;;;;5035373;28;20046;-28
2022/09/14 12:36:31;;;;;;;3.90;0.80;;;22.30;99.90;;;;;;5035295;28;20056;-27
2022/09/14 12:38:56;;;;;;;4.82;1.00;;;22.50;99.90;;;;;;5035846;28;20132;-27
2022/09/14 12:41:23;;;;;;;8.68;0.90;;;22.20;99.90;;;;;;4996044;28;1146054;-27
2022/09/14 12:43:48;;;;;;;6.00;0.70;;;21.90;99.90;;;;;;5036015;28;20054;-26
2022/09/14 12:46:20;;;;;;;9.00;1.02;;;21.30;99.90;;;;;;5018517;28;20102;-27
2022/09/14 12:48:54;;;;;;;4.78;0.85;;;21.10;99.90;;;;;;5037078;28;20045;-27
2022/09/14 12:51:30;;;;;;;6.68;1.13;;;20.90;99.90;;;;;;5036155;28;20101;-27
2022/09/14 12:54:26;;;;;;;5.18;1.17;;;20.70;99.90;;;;;;5036707;28;20098;-26
2022/09/14 12:57:16;;;;;;;7.63;1.05;;;20.50;1.00;;;;;;5036756;28;20067;-26
2022/09/14 13:00:12;;;;;;;8.18;1.30;;;20.40;1.00;;;;;;5036359;28;20049;-27
2022/09/14 13:03:13;;;;;;;6.38;0.98;;;20.20;1.00;;;;;;5034563;28;20483;-26
2022/09/14 13:05:42;;;;;;;5.72;0.73;;;20.10;1.00;;;;;;5035910;28;20108;-26
2022/09/14 13:08:10;;;;;;;4.15;0.70;;;20.00;1.00;;;;;;5035950;28;20049;-27
2022/09/14 13:10:44;;;;;;;6.03;0.85;;;20.10;20.80;;;;;;5035070;28;20054;-27
2022/09/14 13:13:17;;;;;;;9.55;1.52;;;20.50;12.60;;;;;;5034572;28;20080;-26
2022/09/14 13:15:54;;;;;;;2.85;0.75;;;20.60;1.00;;;;;;5035726;28;20445;-26